Time;durP1;ratioP1;P1;durP2;ratioP2;P2;SDS_P1;SDS_P2;PMS_P1;PMS_P2;Temp;Humidity;BMP_temperature;BMP_pressure;BME280_temperature;BME280_humidity;BME280_pressure;Samples;Min_cycle;Max_cycle;Signal;HPM_P1;HPM_P2
2022/03/15 00:01:03;;;;;;;26.10;8.95;;;4.80;99.90;;;;;;5030125;28;20034;-73
2022/03/15 00:03:29;;;;;;;23.42;9.15;;;4.90;99.90;;;;;;5025948;28;20040;-74
2022/03/15 00:05:55;;;;;;;18.17;7.53;;;4.80;99.90;;;;;;5027090;28;20034;-73
2022/03/15 00:08:20;;;;;;;15.63;8.18;;;4.80;99.90;;;;;;5026644;28;20022;-73
2022/03/15 00:10:48;;;;;;;19.77;8.60;;;4.70;99.90;;;;;;5026361;28;20041;-73
2022/03/15 00:13:15;;;;;;;25.25;9.57;;;4.70;99.90;;;;;;5009006;28;20431;-74
2022/03/15 00:15:42;;;;;;;17.65;8.20;;;4.70;99.90;;;;;;5025968;28;20022;-75
2022/03/15 00:18:09;;;;;;;11.77;6.35;;;4.70;99.90;;;;;;5026461;28;20029;-74
2022/03/15 00:20:36;;;;;;;16.98;8.45;;;4.70;99.90;;;;;;5026884;28;20037;-73
2022/03/15 00:23:03;;;;;;;22.85;8.70;;;4.60;99.90;;;;;;5026459;28;20509;-73
2022/03/15 00:25:30;;;;;;;16.45;7.90;;;4.70;99.90;;;;;;5026357;28;20041;-73
2022/03/15 00:27:55;;;;;;;26.83;7.93;;;4.60;99.90;;;;;;5026536;28;20033;-73
2022/03/15 00:30:24;;;;;;;20.48;7.65;;;4.60;99.90;;;;;;5008124;28;20034;-74
2022/03/15 00:32:50;;;;;;;18.42;7.85;;;4.60;99.90;;;;;;5026041;28;20029;-74
2022/03/15 00:35:18;;;;;;;15.05;7.43;;;4.60;99.90;;;;;;5026199;28;20030;-74
2022/03/15 00:37:49;;;;;;;19.45;8.13;;;4.60;99.90;;;;;;5025767;28;20056;-73
2022/03/15 00:40:16;;;;;;;18.92;7.65;;;4.60;99.90;;;;;;5026183;28;20426;-72
2022/03/15 00:42:46;;;;;;;18.88;7.47;;;4.60;99.90;;;;;;5006580;28;20022;-74
2022/03/15 00:45:12;;;;;;;19.80;7.15;;;4.60;99.90;;;;;;5025422;28;20394;-73
2022/03/15 00:47:38;;;;;;;13.95;6.72;;;4.70;99.90;;;;;;5026479;28;20463;-73
2022/03/15 00:50:04;;;;;;;16.98;7.03;;;4.60;99.90;;;;;;5025621;28;20135;-72
2022/03/15 00:52:30;;;;;;;18.92;7.97;;;4.60;99.90;;;;;;5024820;28;20025;-73
2022/03/15 00:54:56;;;;;;;14.98;7.85;;;4.60;99.90;;;;;;5026072;28;20032;-75
2022/03/15 00:57:22;;;;;;;17.20;7.53;;;4.60;99.90;;;;;;5026143;28;20041;-73
2022/03/15 00:59:47;;;;;;;13.68;6.55;;;4.60;99.90;;;;;;5023670;28;20026;-73
2022/03/15 01:02:13;;;;;;;13.73;7.10;;;4.60;99.90;;;;;;5007920;28;20022;-74
2022/03/15 01:04:40;;;;;;;17.25;6.88;;;4.60;99.90;;;;;;5029342;28;20075;-73
2022/03/15 01:07:06;;;;;;;14.63;6.47;;;4.60;99.90;;;;;;5037789;28;20030;-74
2022/03/15 01:09:32;;;;;;;23.10;9.40;;;4.60;99.90;;;;;;5025613;28;20038;-73
2022/03/15 01:11:59;;;;;;;15.43;6.32;;;4.70;99.90;;;;;;5040144;28;20089;-72
2022/03/15 01:14:27;;;;;;;29.20;8.25;;;4.80;99.90;;;;;;5044778;28;20076;-72
2022/03/15 01:16:54;;;;;;;18.65;7.03;;;4.80;99.90;;;;;;5045434;28;20048;-74
2022/03/15 01:19:20;;;;;;;14.75;5.88;;;4.70;99.90;;;;;;5044995;28;20048;-74
2022/03/15 01:21:45;;;;;;;16.00;6.43;;;4.70;99.90;;;;;;5044916;28;20033;-74
2022/03/15 01:24:11;;;;;;;18.92;6.70;;;4.70;99.90;;;;;;5045383;28;20121;-73
2022/03/15 01:26:47;;;;;;;14.63;6.85;;;4.60;99.90;;;;;;5036935;28;20030;-74
2022/03/15 01:29:13;;;;;;;11.90;6.13;;;4.60;99.90;;;;;;5025408;28;20048;-74
2022/03/15 01:31:39;;;;;;;20.35;6.60;;;4.60;99.90;;;;;;5029176;28;20026;-73
2022/03/15 01:34:05;;;;;;;19.67;7.18;;;4.50;99.90;;;;;;5032798;28;20029;-74
2022/03/15 01:36:31;;;;;;;16.10;6.00;;;4.50;99.90;;;;;;5025499;28;20085;-73
2022/03/15 01:38:57;;;;;;;18.15;7.90;;;4.50;99.90;;;;;;5023969;28;20026;-73
2022/03/15 01:41:23;;;;;;;19.52;7.75;;;4.50;99.90;;;;;;5024626;28;20057;-73
2022/03/15 01:43:49;;;;;;;17.75;7.47;;;4.50;99.90;;;;;;5024883;28;20026;-74
2022/03/15 01:46:16;;;;;;;13.88;7.55;;;4.50;99.90;;;;;;5024346;28;20128;-73
2022/03/15 01:48:42;;;;;;;11.60;5.93;;;4.50;99.90;;;;;;5024539;28;20018;-74
2022/03/15 01:51:09;;;;;;;20.05;7.10;;;4.50;99.90;;;;;;5033758;28;20040;-74
2022/03/15 01:53:37;;;;;;;15.27;6.72;;;4.40;99.90;;;;;;5041762;28;20029;-73
2022/03/15 01:56:03;;;;;;;11.30;5.82;;;4.40;99.90;;;;;;5044305;28;20660;-73
2022/03/15 01:58:29;;;;;;;14.55;6.82;;;4.30;99.90;;;;;;5044485;28;20477;-73
2022/03/15 02:00:54;;;;;;;24.35;6.60;;;4.30;99.90;;;;;;5036906;28;20116;-73
2022/03/15 02:03:21;;;;;;;23.23;6.55;;;4.30;99.90;;;;;;5025322;28;20144;-73
2022/03/15 02:05:46;;;;;;;16.17;6.57;;;4.30;99.90;;;;;;5043442;28;20025;-74
2022/03/15 02:08:15;;;;;;;12.10;6.32;;;4.20;99.90;;;;;;5044719;28;20036;-73
2022/03/15 02:10:41;;;;;;;15.23;6.80;;;4.20;99.90;;;;;;5034864;28;20143;-74
2022/03/15 02:13:08;;;;;;;19.35;5.38;;;4.20;99.90;;;;;;5044591;28;20049;-74
2022/03/15 02:15:35;;;;;;;9.52;5.68;;;4.10;99.90;;;;;;5044426;28;20021;-73
2022/03/15 02:18:01;;;;;;;16.55;5.22;;;4.10;99.90;;;;;;5044208;28;20021;-73
2022/03/15 02:20:27;;;;;;;12.55;6.32;;;4.20;99.90;;;;;;5044358;28;20077;-73
2022/03/15 02:22:53;;;;;;;13.02;5.63;;;4.10;99.90;;;;;;5035794;28;20030;-73
2022/03/15 02:25:18;;;;;;;12.13;5.65;;;4.10;99.90;;;;;;5043902;28;20025;-73
2022/03/15 02:27:44;;;;;;;22.08;5.20;;;4.10;99.90;;;;;;5043647;28;20032;-74
2022/03/15 02:30:11;;;;;;;17.77;5.53;;;4.10;99.90;;;;;;5041193;28;20069;-74
2022/03/15 02:32:38;;;;;;;17.10;6.15;;;4.20;99.90;;;;;;5024451;28;20018;-74
2022/03/15 02:35:05;;;;;;;15.68;5.40;;;4.20;99.90;;;;;;5024211;28;20048;-73
2022/03/15 02:37:31;;;;;;;13.82;6.18;;;4.10;99.90;;;;;;5024320;28;20040;-73
2022/03/15 02:39:57;;;;;;;11.93;5.00;;;4.10;99.90;;;;;;5024331;28;20905;-73
2022/03/15 02:42:32;;;;;;;15.25;7.22;;;4.10;99.90;;;;;;5024010;28;20124;-75
2022/03/15 02:44:57;;;;;;;14.18;5.63;;;4.10;99.90;;;;;;5043701;28;20022;-73
2022/03/15 02:47:23;;;;;;;15.10;5.72;;;4.00;99.90;;;;;;5044210;28;20036;-73
2022/03/15 02:49:49;;;;;;;14.82;5.35;;;4.00;99.90;;;;;;5025522;28;20044;-74
2022/03/15 02:52:15;;;;;;;14.40;6.93;;;4.00;99.90;;;;;;5043724;28;20108;-74
2022/03/15 02:54:41;;;;;;;11.23;4.90;;;3.90;99.90;;;;;;5041892;28;20390;-75
2022/03/15 02:57:10;;;;;;;10.55;4.20;;;3.80;99.90;;;;;;5035009;28;20033;-74
2022/03/15 02:59:42;;;;;;;14.68;6.20;;;3.80;99.90;;;;;;5023820;28;20034;-74
2022/03/15 03:02:09;;;;;;;13.68;5.45;;;3.70;99.90;;;;;;5024134;28;20033;-74
2022/03/15 03:04:36;;;;;;;18.90;5.85;;;3.70;99.90;;;;;;5024306;28;20018;-74
2022/03/15 03:07:06;;;;;;;15.23;4.90;;;3.60;99.90;;;;;;5024122;28;20033;-74
2022/03/15 03:09:32;;;;;;;13.80;5.72;;;3.60;99.90;;;;;;5023816;28;20048;-74
2022/03/15 03:11:57;;;;;;;12.93;6.55;;;3.50;99.90;;;;;;5023727;28;20506;-73
2022/03/15 03:14:29;;;;;;;12.80;5.57;;;3.50;99.90;;;;;;5040347;28;20029;-74
2022/03/15 03:16:54;;;;;;;20.25;6.68;;;3.40;99.90;;;;;;5045252;28;20056;-74
2022/03/15 03:19:20;;;;;;;11.55;5.25;;;3.40;99.90;;;;;;5047242;28;20025;-74
2022/03/15 03:21:46;;;;;;;13.13;6.07;;;3.40;99.90;;;;;;5047538;28;20032;-73
2022/03/15 03:24:11;;;;;;;21.52;6.15;;;3.30;99.90;;;;;;5047392;28;20490;-73
2022/03/15 03:26:39;;;;;;;15.88;6.32;;;3.30;99.90;;;;;;5047390;28;20033;-74
2022/03/15 03:29:09;;;;;;;13.15;6.60;;;3.30;99.90;;;;;;5047595;28;20076;-75
2022/03/15 03:31:40;;;;;;;18.10;6.85;;;3.30;99.90;;;;;;5047105;28;20029;-74
2022/03/15 03:34:06;;;;;;;14.13;6.25;;;3.30;99.90;;;;;;5046974;28;20033;-73
2022/03/15 03:36:34;;;;;;;17.15;5.85;;;3.30;99.90;;;;;;5047603;28;20030;-73
2022/03/15 03:39:00;;;;;;;18.20;7.18;;;3.20;99.90;;;;;;5047363;28;20025;-73
2022/03/15 03:41:26;;;;;;;11.43;5.50;;;3.20;99.90;;;;;;5047003;28;20036;-73
2022/03/15 03:43:51;;;;;;;20.88;7.20;;;3.20;99.90;;;;;;5047457;28;20025;-73
2022/03/15 03:46:17;;;;;;;14.88;5.78;;;3.20;99.90;;;;;;5028598;28;20498;-73
2022/03/15 03:48:44;;;;;;;19.52;6.32;;;3.20;99.90;;;;;;5045923;28;20425;-74
2022/03/15 03:51:13;;;;;;;12.25;5.93;;;3.20;99.90;;;;;;5036921;28;20032;-73
2022/03/15 03:53:39;;;;;;;14.75;5.97;;;3.20;99.90;;;;;;5026534;28;20037;-74
2022/03/15 03:56:06;;;;;;;14.60;6.75;;;3.20;99.90;;;;;;5032166;28;20029;-74
2022/03/15 03:58:34;;;;;;;15.50;6.25;;;3.20;99.90;;;;;;5047135;28;20073;-75
2022/03/15 04:01:01;;;;;;;21.05;5.75;;;3.20;99.90;;;;;;5046470;28;20538;-74
2022/03/15 04:03:28;;;;;;;11.65;5.65;;;3.20;99.90;;;;;;5046956;28;20057;-74
2022/03/15 04:05:54;;;;;;;15.27;6.90;;;3.20;99.90;;;;;;5046500;28;20509;-74
2022/03/15 04:08:20;;;;;;;16.60;6.10;;;3.20;99.90;;;;;;5046449;28;20029;-74
2022/03/15 04:10:46;;;;;;;17.15;6.70;;;3.20;99.90;;;;;;5028938;28;20059;-74
2022/03/15 04:13:18;;;;;;;14.13;6.68;;;3.20;99.90;;;;;;5028863;28;20029;-74
2022/03/15 04:15:45;;;;;;;16.17;6.63;;;3.20;99.90;;;;;;5045553;28;20018;-75
2022/03/15 04:18:12;;;;;;;18.00;7.32;;;3.30;99.90;;;;;;5028611;28;20029;-74
2022/03/15 04:20:38;;;;;;;17.85;7.00;;;3.20;99.90;;;;;;5046159;28;20117;-74
2022/03/15 04:23:03;;;;;;;22.98;7.70;;;3.20;99.90;;;;;;5029687;28;20052;-74
2022/03/15 04:25:29;;;;;;;14.95;7.57;;;3.30;99.90;;;;;;5026716;28;20034;-74
2022/03/15 04:28:00;;;;;;;29.02;7.53;;;3.20;99.90;;;;;;5025218;28;20026;-74
2022/03/15 04:30:29;;;;;;;18.73;7.30;;;3.30;99.90;;;;;;5026470;28;20046;-74
2022/03/15 04:32:55;;;;;;;27.73;8.32;;;3.30;99.90;;;;;;5026329;28;20534;-73
2022/03/15 04:35:21;;;;;;;15.07;6.95;;;3.30;99.90;;;;;;5025549;28;20030;-73
2022/03/15 04:37:47;;;;;;;27.52;7.93;;;3.20;99.90;;;;;;5026162;28;20030;-74
2022/03/15 04:40:15;;;;;;;42.63;8.45;;;3.10;99.90;;;;;;5026513;28;20029;-74
2022/03/15 04:42:40;;;;;;;33.45;7.68;;;3.00;99.90;;;;;;5008180;28;20041;-75
2022/03/15 04:45:08;;;;;;;17.35;8.60;;;3.00;99.90;;;;;;5025094;28;20378;-73
2022/03/15 04:47:33;;;;;;;36.88;9.63;;;3.00;99.90;;;;;;5024608;28;20467;-74
2022/03/15 04:49:59;;;;;;;55.53;9.98;;;2.90;99.90;;;;;;5029077;28;20053;-74
2022/03/15 04:52:25;;;;;;;23.52;7.05;;;2.90;99.90;;;;;;5039173;28;20030;-73
2022/03/15 04:54:50;;;;;;;18.40;7.35;;;2.90;99.90;;;;;;5027310;28;20037;-74
2022/03/15 04:57:16;;;;;;;41.63;9.52;;;2.90;99.90;;;;;;5045023;28;20036;-74
2022/03/15 04:59:41;;;;;;;19.67;8.60;;;2.90;99.90;;;;;;5045180;28;20033;-74
2022/03/15 05:02:07;;;;;;;20.70;8.10;;;2.90;99.90;;;;;;5045612;28;20369;-75
2022/03/15 05:04:32;;;;;;;43.90;9.35;;;2.80;99.90;;;;;;5045596;28;20060;-74
2022/03/15 05:06:58;;;;;;;17.67;8.35;;;2.80;99.90;;;;;;5027537;28;20144;-73
2022/03/15 05:09:24;;;;;;;17.15;7.55;;;2.80;99.90;;;;;;5045055;28;20032;-73
2022/03/15 05:11:49;;;;;;;26.30;7.53;;;2.80;99.90;;;;;;5045100;28;20021;-75
2022/03/15 05:14:15;;;;;;;21.95;8.00;;;2.80;99.90;;;;;;5045091;28;20084;-74
2022/03/15 05:16:41;;;;;;;15.88;5.97;;;2.80;99.90;;;;;;5044965;28;20047;-74
2022/03/15 05:19:07;;;;;;;23.77;9.38;;;2.80;99.90;;;;;;5045530;28;20021;-75
2022/03/15 05:21:33;;;;;;;24.75;9.00;;;2.90;99.90;;;;;;5045102;28;20186;-73
2022/03/15 05:23:59;;;;;;;18.58;7.22;;;2.90;99.90;;;;;;5044798;28;20541;-74
2022/03/15 05:26:25;;;;;;;32.70;9.57;;;2.80;99.90;;;;;;5045310;28;20036;-74
2022/03/15 05:28:51;;;;;;;17.23;7.07;;;2.90;99.90;;;;;;5045344;28;20033;-73
2022/03/15 05:31:19;;;;;;;14.55;7.15;;;2.90;99.90;;;;;;5044402;28;20017;-73
2022/03/15 05:33:46;;;;;;;14.57;7.63;;;2.90;99.90;;;;;;5044815;28;20040;-74
2022/03/15 05:36:12;;;;;;;16.38;7.55;;;2.90;99.90;;;;;;5045139;28;20442;-75
2022/03/15 05:38:38;;;;;;;22.27;9.18;;;3.00;99.90;;;;;;5044192;28;20022;-74
2022/03/15 05:41:05;;;;;;;23.30;8.63;;;3.00;99.90;;;;;;5045237;28;20025;-73
2022/03/15 05:43:31;;;;;;;22.13;8.30;;;3.00;99.90;;;;;;5042592;28;21632;-72
2022/03/15 05:45:56;;;;;;;19.45;8.18;;;3.00;99.90;;;;;;5026457;28;20879;-73
2022/03/15 05:48:22;;;;;;;24.63;8.23;;;3.00;99.90;;;;;;5024278;28;20057;-74
2022/03/15 05:50:48;;;;;;;36.80;8.38;;;3.10;99.90;;;;;;5006671;28;20053;-73
2022/03/15 05:53:14;;;;;;;14.95;7.72;;;3.10;99.90;;;;;;5025173;28;20030;-73
2022/03/15 05:55:40;;;;;;;26.40;7.28;;;3.10;99.90;;;;;;5025303;28;20022;-74
2022/03/15 05:58:06;;;;;;;37.10;8.25;;;3.10;99.90;;;;;;5024503;28;20052;-76
2022/03/15 06:00:32;;;;;;;17.45;7.55;;;3.10;99.90;;;;;;5024740;28;20115;-73
2022/03/15 06:02:58;;;;;;;27.30;7.25;;;3.20;99.90;;;;;;5024652;28;20026;-72
2022/03/15 06:05:24;;;;;;;13.80;6.50;;;3.20;99.90;;;;;;5024473;28;20036;-73
2022/03/15 06:07:52;;;;;;;15.63;6.85;;;3.30;99.90;;;;;;5024837;28;20037;-74
2022/03/15 06:10:21;;;;;;;12.60;6.30;;;3.30;99.90;;;;;;5024442;28;20037;-73
2022/03/15 06:12:47;;;;;;;22.45;6.30;;;3.40;99.90;;;;;;5024315;28;20029;-74
2022/03/15 06:15:14;;;;;;;12.02;6.20;;;3.40;99.90;;;;;;5024734;28;20026;-73
2022/03/15 06:17:52;;;;;;;22.77;6.93;;;3.40;99.90;;;;;;5023154;28;20061;-74
2022/03/15 06:20:19;;;;;;;21.95;7.20;;;3.40;99.90;;;;;;5024656;28;20053;-72
2022/03/15 06:22:46;;;;;;;12.15;6.55;;;3.50;99.90;;;;;;5036406;28;20025;-71
2022/03/15 06:25:13;;;;;;;14.23;7.13;;;3.60;99.90;;;;;;5029425;28;20060;-72
2022/03/15 06:27:39;;;;;;;25.77;7.00;;;3.60;99.90;;;;;;5024552;28;20033;-73
2022/03/15 06:30:09;;;;;;;15.57;6.65;;;3.70;99.90;;;;;;5024821;28;20038;-72
2022/03/15 06:32:36;;;;;;;16.90;7.75;;;3.70;99.90;;;;;;5024010;28;20090;-71
2022/03/15 06:35:07;;;;;;;18.42;6.78;;;3.70;99.90;;;;;;5022458;28;20026;-73
2022/03/15 06:37:40;;;;;;;12.05;5.57;;;3.80;99.90;;;;;;5026351;28;20098;-72
2022/03/15 06:40:08;;;;;;;13.68;6.28;;;3.80;99.90;;;;;;5033535;28;20053;-73
2022/03/15 06:42:34;;;;;;;26.23;6.72;;;3.80;99.90;;;;;;5031799;28;20076;-71
2022/03/15 06:45:00;;;;;;;13.57;6.38;;;3.90;99.90;;;;;;5034912;28;20033;-72
2022/03/15 06:47:25;;;;;;;21.17;6.63;;;3.90;99.90;;;;;;5023816;28;20038;-72
2022/03/15 06:49:51;;;;;;;12.13;6.15;;;4.00;99.90;;;;;;5034704;28;20041;-72
2022/03/15 06:52:16;;;;;;;12.25;5.50;;;4.00;99.90;;;;;;5039292;28;20060;-72
2022/03/15 06:54:42;;;;;;;13.23;6.35;;;4.00;99.90;;;;;;5037384;28;20394;-73
2022/03/15 06:57:08;;;;;;;11.57;6.13;;;4.00;99.90;;;;;;5043006;28;20085;-72
2022/03/15 06:59:34;;;;;;;13.73;6.85;;;4.10;99.90;;;;;;5047329;28;20034;-72
2022/03/15 07:02:00;;;;;;;18.00;7.15;;;4.10;99.90;;;;;;5048339;28;20056;-73
2022/03/15 07:04:25;;;;;;;16.17;6.32;;;4.20;99.90;;;;;;5045845;28;20069;-71
2022/03/15 07:06:51;;;;;;;27.33;6.65;;;4.30;99.90;;;;;;5043227;28;20026;-71
2022/03/15 07:09:17;;;;;;;13.55;6.53;;;4.30;99.90;;;;;;5047296;28;20044;-73
2022/03/15 07:11:43;;;;;;;16.13;7.68;;;4.30;99.90;;;;;;5046244;28;20462;-74
2022/03/15 07:14:09;;;;;;;18.30;6.03;;;4.40;99.90;;;;;;5040644;28;20034;-72
2022/03/15 07:16:34;;;;;;;16.75;7.10;;;4.40;99.90;;;;;;5029973;28;20021;-72
2022/03/15 07:19:00;;;;;;;15.80;6.82;;;4.40;99.90;;;;;;5047436;28;20025;-72
2022/03/15 07:21:26;;;;;;;20.35;8.13;;;4.50;99.90;;;;;;5038903;28;20030;-74
2022/03/15 07:23:52;;;;;;;14.80;6.50;;;4.50;99.90;;;;;;5043343;28;20040;-73
2022/03/15 07:26:17;;;;;;;18.20;7.38;;;4.60;99.90;;;;;;5038646;28;20488;-73
2022/03/15 07:28:44;;;;;;;49.70;7.68;;;4.60;99.90;;;;;;5044688;28;20034;-74
2022/03/15 07:31:09;;;;;;;15.02;6.45;;;4.70;99.90;;;;;;5027046;28;20033;-71
2022/03/15 07:33:36;;;;;;;23.40;7.53;;;4.80;99.90;;;;;;5046415;28;20109;-74
2022/03/15 07:36:03;;;;;;;18.45;7.10;;;4.80;99.90;;;;;;5047587;28;20474;-72
2022/03/15 07:38:30;;;;;;;28.42;7.80;;;4.90;99.90;;;;;;5047337;28;20029;-72
2022/03/15 07:41:00;;;;;;;17.38;7.70;;;4.90;99.90;;;;;;5040433;28;20037;-72
2022/03/15 07:43:27;;;;;;;18.92;8.35;;;5.00;99.90;;;;;;5038460;28;20090;-71
2022/03/15 07:45:53;;;;;;;15.52;7.65;;;5.00;99.90;;;;;;5027007;28;20545;-72
2022/03/15 07:48:19;;;;;;;15.93;7.22;;;5.00;99.90;;;;;;5027300;28;20026;-71
2022/03/15 07:50:45;;;;;;;20.85;7.82;;;5.10;99.90;;;;;;5017693;28;20430;-73
2022/03/15 07:53:12;;;;;;;16.92;7.20;;;5.10;99.90;;;;;;5028259;28;20033;-73
2022/03/15 07:55:38;;;;;;;22.80;7.82;;;5.20;99.90;;;;;;5045371;28;20061;-72
2022/03/15 07:58:04;;;;;;;19.30;7.72;;;5.30;99.90;;;;;;5028985;28;20033;-73
2022/03/15 08:00:31;;;;;;;19.75;8.52;;;5.30;99.90;;;;;;5045267;28;20038;-72
2022/03/15 08:02:57;;;;;;;26.90;8.02;;;5.30;99.90;;;;;;5018577;28;20049;-72
2022/03/15 08:05:22;;;;;;;16.60;7.28;;;5.40;99.90;;;;;;5039684;28;20034;-72
2022/03/15 08:07:49;;;;;;;22.08;8.27;;;5.40;99.90;;;;;;5045419;28;20033;-72
2022/03/15 08:10:14;;;;;;;13.38;7.75;;;5.40;99.90;;;;;;5046440;28;20101;-73
2022/03/15 08:12:40;;;;;;;17.90;8.13;;;5.50;99.90;;;;;;5046465;28;20030;-73
2022/03/15 08:15:08;;;;;;;19.27;8.85;;;5.50;99.90;;;;;;5045164;28;20037;-72
2022/03/15 08:17:35;;;;;;;16.10;7.22;;;5.50;99.90;;;;;;5037926;28;20037;-71
2022/03/15 08:20:00;;;;;;;20.00;8.05;;;5.60;99.90;;;;;;5037999;28;20026;-72
2022/03/15 08:22:28;;;;;;;26.55;10.30;;;5.60;99.90;;;;;;5039009;28;20025;-71
2022/03/15 08:24:54;;;;;;;28.77;9.57;;;5.70;99.90;;;;;;5041842;28;20026;-71
2022/03/15 08:27:21;;;;;;;22.05;9.18;;;5.70;99.90;;;;;;5034964;28;20033;-73
2022/03/15 08:29:46;;;;;;;23.92;9.05;;;5.70;99.90;;;;;;5038032;28;20053;-71
2022/03/15 08:32:12;;;;;;;27.88;9.15;;;5.70;99.90;;;;;;5041466;28;20041;-71
2022/03/15 08:34:38;;;;;;;23.83;7.97;;;5.80;99.90;;;;;;5023835;28;20390;-70
2022/03/15 08:37:04;;;;;;;21.52;8.93;;;5.80;99.90;;;;;;5036442;28;20037;-72
2022/03/15 08:39:30;;;;;;;20.98;9.00;;;5.80;99.90;;;;;;5046408;28;20036;-71
2022/03/15 08:41:55;;;;;;;25.88;8.68;;;5.80;99.90;;;;;;5045801;28;20033;-72
2022/03/15 08:44:22;;;;;;;16.63;8.35;;;6.00;99.90;;;;;;5033039;28;20034;-71
2022/03/15 08:46:48;;;;;;;15.73;8.40;;;5.90;99.90;;;;;;5038235;28;20049;-72
2022/03/15 08:49:15;;;;;;;17.58;8.43;;;6.00;99.90;;;;;;5019257;28;20037;-72
2022/03/15 08:51:44;;;;;;;15.93;7.80;;;6.00;99.90;;;;;;5030061;28;20109;-72
2022/03/15 08:54:11;;;;;;;16.33;7.32;;;6.10;99.90;;;;;;5030447;28;20049;-73
2022/03/15 08:56:41;;;;;;;21.73;9.07;;;6.10;99.90;;;;;;5025143;28;20033;-70
2022/03/15 08:59:12;;;;;;;20.23;7.63;;;6.20;99.90;;;;;;5026995;28;20398;-71
2022/03/15 09:01:42;;;;;;;22.15;9.85;;;6.30;99.90;;;;;;5042912;28;20032;-73
2022/03/15 09:04:13;;;;;;;25.90;8.40;;;6.30;99.90;;;;;;5036227;28;20026;-71
2022/03/15 09:06:42;;;;;;;11.70;7.80;;;6.30;99.90;;;;;;5025052;28;20072;-74
2022/03/15 09:09:18;;;;;;;21.30;8.10;;;6.40;99.90;;;;;;5024955;28;20029;-72
2022/03/15 09:11:46;;;;;;;22.10;9.63;;;6.40;99.90;;;;;;5027199;28;20363;-73
2022/03/15 09:14:12;;;;;;;21.15;8.10;;;6.40;99.90;;;;;;5042965;28;20025;-72
2022/03/15 09:16:39;;;;;;;21.75;8.88;;;6.50;99.90;;;;;;5027975;28;20037;-73
2022/03/15 09:19:08;;;;;;;23.77;9.57;;;6.50;99.90;;;;;;5039034;28;20033;-72
2022/03/15 09:21:34;;;;;;;30.25;9.32;;;6.60;99.90;;;;;;5038578;28;20029;-70
2022/03/15 09:23:59;;;;;;;27.67;9.80;;;6.70;99.90;;;;;;5032406;28;20544;-72
2022/03/15 09:26:26;;;;;;;22.05;9.13;;;6.70;99.90;;;;;;5029894;28;20043;-71
2022/03/15 09:28:51;;;;;;;19.52;8.90;;;6.70;99.90;;;;;;5045295;28;20021;-72
2022/03/15 09:31:20;;;;;;;21.50;8.35;;;6.80;99.90;;;;;;5026790;28;20041;-72
2022/03/15 09:33:46;;;;;;;27.90;11.05;;;6.80;99.90;;;;;;5038525;28;20051;-71
2022/03/15 09:36:13;;;;;;;23.33;10.35;;;6.90;99.90;;;;;;5042625;28;20032;-71
2022/03/15 09:38:40;;;;;;;22.75;9.43;;;6.90;99.90;;;;;;5044864;28;20026;-72
2022/03/15 09:41:07;;;;;;;21.23;8.85;;;7.00;99.90;;;;;;5044501;28;20040;-72
2022/03/15 09:43:45;;;;;;;23.88;10.93;;;7.00;99.90;;;;;;5044551;28;20037;-72
2022/03/15 09:46:12;;;;;;;27.42;11.23;;;7.10;99.90;;;;;;5043508;28;20073;-72
2022/03/15 09:48:41;;;;;;;25.25;10.40;;;7.20;99.90;;;;;;5044042;28;20022;-73
2022/03/15 09:51:11;;;;;;;27.45;11.45;;;7.20;99.90;;;;;;5044998;28;20096;-71
2022/03/15 09:53:40;;;;;;;29.45;9.55;;;7.20;99.90;;;;;;5033115;28;20030;-73
2022/03/15 09:56:05;;;;;;;24.67;9.77;;;7.30;99.90;;;;;;5031808;28;20033;-72
2022/03/15 09:58:31;;;;;;;24.08;10.10;;;7.30;99.90;;;;;;5007486;28;20034;-72
2022/03/15 10:00:57;;;;;;;30.17;10.95;;;7.40;99.90;;;;;;5019444;28;20026;-73
2022/03/15 10:03:24;;;;;;;24.45;10.88;;;7.40;99.90;;;;;;5036660;28;20022;-74
2022/03/15 10:05:49;;;;;;;23.52;9.57;;;7.50;99.90;;;;;;5031833;28;20049;-72
2022/03/15 10:08:17;;;;;;;25.17;10.48;;;7.50;99.90;;;;;;5034004;28;20037;-71
2022/03/15 10:10:49;;;;;;;21.70;10.45;;;7.60;99.90;;;;;;5024609;28;20072;-74
2022/03/15 10:13:15;;;;;;;19.98;9.32;;;7.60;99.90;;;;;;5036703;28;20430;-73
2022/03/15 10:15:51;;;;;;;26.30;10.43;;;7.70;99.90;;;;;;5006298;28;20026;-71
2022/03/15 10:18:18;;;;;;;23.33;10.88;;;7.80;99.90;;;;;;5023974;28;20030;-70
2022/03/15 10:20:44;;;;;;;22.90;10.57;;;7.80;99.90;;;;;;5017901;28;20033;-72
2022/03/15 10:23:10;;;;;;;27.55;11.07;;;7.90;99.90;;;;;;5031819;28;20060;-71
2022/03/15 10:25:41;;;;;;;31.75;12.68;;;7.90;99.90;;;;;;5037983;28;20029;-71
2022/03/15 10:28:09;;;;;;;24.02;12.43;;;7.90;99.90;;;;;;5048782;28;20040;-74
2022/03/15 10:30:36;;;;;;;35.08;12.38;;;7.90;99.90;;;;;;5048603;28;20092;-72
2022/03/15 10:33:02;;;;;;;30.40;12.30;;;8.00;99.90;;;;;;5047907;28;20409;-72
2022/03/15 10:35:40;;;;;;;25.45;11.68;;;8.00;99.90;;;;;;5048049;28;20120;-71
2022/03/15 10:38:08;;;;;;;29.08;10.63;;;8.10;99.90;;;;;;5042607;28;20034;-71
2022/03/15 10:40:53;;;;;;;24.55;10.30;;;8.10;99.90;;;;;;5030622;28;20403;-71
2022/03/15 10:43:28;;;;;;;25.33;9.15;;;8.10;99.90;;;;;;5038575;28;20473;-73
2022/03/15 10:45:57;;;;;;;24.58;10.15;;;8.20;99.90;;;;;;5028668;28;20160;-72
2022/03/15 10:48:27;;;;;;;30.00;12.20;;;8.20;99.90;;;;;;5043858;28;20037;-73
2022/03/15 10:51:14;;;;;;;30.92;13.27;;;8.30;99.90;;;;;;5046674;28;20064;-73
2022/03/15 10:53:50;;;;;;;32.10;12.75;;;8.30;99.90;;;;;;5040432;28;20044;-73
2022/03/15 10:56:20;;;;;;;32.53;12.82;;;8.40;99.90;;;;;;5048213;28;20059;-71
2022/03/15 10:59:03;;;;;;;25.08;11.65;;;8.50;99.90;;;;;;5046998;28;20029;-73
2022/03/15 11:01:42;;;;;;;23.60;11.10;;;8.50;99.90;;;;;;5030275;28;20037;-74
2022/03/15 11:04:13;;;;;;;35.10;12.43;;;8.60;99.90;;;;;;5048142;28;20076;-71
2022/03/15 11:06:46;;;;;;;35.13;12.98;;;8.70;99.90;;;;;;5030383;28;20096;-71
2022/03/15 11:09:29;;;;;;;34.03;14.95;;;8.80;99.90;;;;;;5048162;28;20029;-74
2022/03/15 11:12:14;;;;;;;28.40;12.48;;;9.00;99.90;;;;;;5029484;28;20101;-73
2022/03/15 11:14:47;;;;;;;35.58;12.05;;;9.10;99.90;;;;;;5048296;28;20026;-73
2022/03/15 11:17:15;;;;;;;30.17;12.77;;;9.20;99.90;;;;;;5047993;28;20044;-71
2022/03/15 11:19:50;;;;;;;23.90;12.05;;;9.30;99.90;;;;;;5046042;28;20055;-70
2022/03/15 11:22:30;;;;;;;34.92;13.73;;;9.50;99.90;;;;;;5046955;28;20030;-73
2022/03/15 11:25:15;;;;;;;32.20;11.93;;;9.60;99.90;;;;;;5028873;28;20045;-73
2022/03/15 11:27:51;;;;;;;22.02;11.40;;;9.70;99.90;;;;;;5037728;28;20033;-73
2022/03/15 11:30:29;;;;;;;25.20;10.77;;;9.90;99.90;;;;;;5027483;28;20037;-73
2022/03/15 11:32:56;;;;;;;30.50;11.57;;;10.10;99.90;;;;;;5040577;28;20013;-73
2022/03/15 11:35:29;;;;;;;28.75;11.30;;;10.20;99.90;;;;;;5023123;28;20029;-71
2022/03/15 11:37:57;;;;;;;33.80;12.43;;;10.40;99.90;;;;;;5040687;28;20029;-71
2022/03/15 11:40:24;;;;;;;25.35;11.40;;;10.50;99.90;;;;;;5045708;28;20033;-73
2022/03/15 11:43:04;;;;;;;27.52;11.90;;;10.60;99.90;;;;;;5042242;28;20537;-73
2022/03/15 11:45:34;;;;;;;32.88;11.82;;;10.70;99.90;;;;;;5046904;28;20046;-71
2022/03/15 11:48:29;;;;;;;27.58;11.57;;;10.90;99.90;;;;;;5043193;28;20029;-71
2022/03/15 11:51:01;;;;;;;25.48;11.43;;;10.90;99.90;;;;;;5043065;28;20050;-72
2022/03/15 11:54:01;;;;;;;32.15;11.82;;;10.90;99.90;;;;;;5043605;28;20036;-71
2022/03/15 11:56:31;;;;;;;21.35;10.13;;;11.00;99.90;;;;;;5046122;28;20056;-71
2022/03/15 11:58:58;;;;;;;27.20;10.75;;;11.00;99.90;;;;;;5045364;28;20029;-70
2022/03/15 12:01:44;;;;;;;23.85;10.35;;;11.00;99.90;;;;;;5046565;28;20043;-71
2022/03/15 12:04:11;;;;;;;31.02;11.27;;;11.00;99.90;;;;;;5027559;28;20034;-72
2022/03/15 12:06:37;;;;;;;30.63;11.13;;;11.00;99.90;;;;;;5044947;28;20083;-71
2022/03/15 12:09:13;;;;;;;33.15;12.70;;;11.00;99.90;;;;;;5032400;28;20520;-72
2022/03/15 12:11:40;;;;;;;29.50;10.93;;;11.00;99.90;;;;;;5038807;28;20033;-72
2022/03/15 12:14:13;;;;;;;25.15;10.38;;;11.10;99.90;;;;;;5010697;28;20581;-73
2022/03/15 12:16:43;;;;;;;24.65;10.38;;;11.10;99.90;;;;;;5026657;28;20422;-72
2022/03/15 12:20:30;;;;;;;34.40;10.82;;;11.00;99.90;;;;;;5033053;28;20096;-71
2022/03/15 12:22:37;;;;;;;;;;;11.00;99.90;;;;;;5022301;28;20116;-70
2022/03/15 12:25:07;;;;;;;29.50;11.18;;;10.90;99.90;;;;;;5037106;28;20306;-72
2022/03/15 12:27:47;;;;;;;25.33;11.88;;;10.90;99.90;;;;;;5038879;28;20021;-70
2022/03/15 12:30:53;;;;;;;40.53;10.98;;;10.80;99.90;;;;;;5026407;28;20033;-71
2022/03/15 12:33:42;;;;;;;29.40;12.50;;;10.80;99.90;;;;;;5026151;28;20056;-70
2022/03/15 12:36:11;;;;;;;28.48;11.70;;;10.80;99.90;;;;;;5042692;28;20025;-69
2022/03/15 12:38:40;;;;;;;24.63;10.05;;;10.80;99.90;;;;;;5041587;28;20488;-72
2022/03/15 12:44:16;;;;;;;24.70;11.00;;;10.80;99.90;;;;;;5029443;28;20041;-72
2022/03/15 12:46:53;;;;;;;26.65;11.52;;;10.80;99.90;;;;;;5024302;28;20046;-70
2022/03/15 12:49:19;;;;;;;25.85;11.18;;;10.80;99.90;;;;;;5024187;28;20088;-73
2022/03/15 12:51:50;;;;;;;38.65;14.02;;;10.70;99.90;;;;;;5026241;28;20044;-69